createdAt,value
2023-03-22T00:02:26.599Z,95487.63
2023-03-22T00:04:54.804Z,95484.88
2023-03-22T00:07:22.967Z,95477.78
2023-03-22T00:09:51.347Z,95477.44
2023-03-22T00:12:19.624Z,95480.97
2023-03-22T00:14:49.080Z,95491.31
2023-03-22T00:17:17.456Z,95495.16
2023-03-22T00:19:45.510Z,95484.38
2023-03-22T00:22:15.024Z,95486.38
2023-03-22T00:24:43.024Z,95486.34
2023-03-22T00:27:11.782Z,95480.34
2023-03-22T00:29:39.676Z,95490.06
2023-03-22T00:32:08.025Z,95489.59
2023-03-22T00:34:36.531Z,95486.50
2023-03-22T00:37:04.855Z,95484.78
2023-03-22T00:39:32.971Z,95483.72
2023-03-22T00:42:01.520Z,95492.19
2023-03-22T00:44:29.473Z,95491.41
2023-03-22T00:46:57.967Z,95491.25
2023-03-22T00:49:26.146Z,95491.41
2023-03-22T00:51:55.223Z,95491.38
2023-03-22T00:54:23.428Z,95492.00
2023-03-22T00:56:51.692Z,95498.44
2023-03-22T00:59:19.749Z,95490.91
2023-03-22T01:01:48.306Z,95489.69
2023-03-22T01:04:18.403Z,95463.56
2023-03-22T01:06:47.527Z,95471.94
2023-03-22T01:09:15.770Z,95488.84
2023-03-22T01:11:45.683Z,95477.31
2023-03-22T01:14:14.244Z,95482.94
2023-03-22T01:16:42.696Z,95485.63
2023-03-22T01:19:11.070Z,95470.22
2023-03-22T01:21:40.176Z,95482.84
2023-03-22T01:24:08.406Z,95483.78
2023-03-22T01:26:36.783Z,95478.53
2023-03-22T01:29:05.606Z,95477.00
2023-03-22T01:31:33.794Z,95466.53
2023-03-22T01:34:20.230Z,95478.88
2023-03-22T01:36:50.513Z,95480.44
2023-03-22T01:39:19.160Z,95470.28
2023-03-22T01:41:50.269Z,95476.28
2023-03-22T01:44:21.975Z,95479.81
2023-03-22T01:46:52.770Z,95469.03
2023-03-22T01:49:29.902Z,95481.06
2023-03-22T01:52:04.063Z,95480.72
2023-03-22T01:54:57.271Z,95484.09
2023-03-22T01:57:53.558Z,95475.34
2023-03-22T02:00:33.003Z,95479.78
2023-03-22T02:03:26.239Z,95474.25
2023-03-22T02:05:54.799Z,95478.88
2023-03-22T02:08:25.626Z,95488.44
2023-03-22T02:11:13.004Z,95479.50
2023-03-22T02:13:48.268Z,95483.84
2023-03-22T02:16:52.243Z,95465.44
2023-03-22T02:19:42.663Z,95485.34
2023-03-22T02:22:30.996Z,95491.50
2023-03-22T02:25:15.786Z,95481.91
2023-03-22T02:28:11.287Z,95489.19
2023-03-22T02:31:15.008Z,95493.97
2023-03-22T02:34:07.940Z,95490.44
2023-03-22T02:37:02.074Z,95485.03
2023-03-22T02:39:45.387Z,95495.03
2023-03-22T02:42:22.317Z,95489.34
2023-03-22T02:44:59.456Z,95486.88
2023-03-22T02:47:42.506Z,95479.78
2023-03-22T02:50:13.334Z,95488.28
2023-03-22T02:52:54.260Z,95486.88
2023-03-22T02:55:32.237Z,95485.34
2023-03-22T02:58:12.583Z,95496.41
2023-03-22T03:00:42.415Z,95484.84
2023-03-22T03:03:18.627Z,95472.84
2023-03-22T03:05:53.204Z,95492.25
2023-03-22T03:08:24.214Z,95491.06
2023-03-22T03:10:54.037Z,95487.81
2023-03-22T03:13:54.479Z,95488.88
2023-03-22T03:16:40.673Z,95492.41
2023-03-22T03:23:33.662Z,95496.66
2023-03-22T03:27:04.363Z,95488.34
2023-03-22T03:30:15.245Z,95487.88
2023-03-22T03:33:54.854Z,95469.78
2023-03-22T03:36:38.544Z,95491.16
2023-03-22T03:39:12.300Z,95495.84
2023-03-22T03:41:43.301Z,95501.00
2023-03-22T03:44:13.227Z,95503.34
2023-03-22T03:46:42.383Z,95491.47
2023-03-22T03:49:13.209Z,95490.81
2023-03-22T03:51:55.239Z,95501.66
2023-03-22T03:54:29.020Z,95500.13
2023-03-22T03:57:04.078Z,95507.22
2023-03-22T03:59:32.771Z,95504.63
2023-03-22T04:02:06.171Z,95494.59
2023-03-22T04:04:35.909Z,95499.94
2023-03-22T04:07:06.464Z,95509.31
2023-03-22T04:10:04.409Z,95513.03
2023-03-22T04:13:40.875Z,95520.75
2023-03-22T04:16:20.249Z,95494.38
2023-03-22T04:21:56.339Z,95493.25
2023-03-22T04:24:41.802Z,95500.03
2023-03-22T04:27:31.866Z,95484.00
2023-03-22T04:30:26.130Z,95523.94
2023-03-22T04:33:43.528Z,95493.72
2023-03-22T04:39:56.937Z,95511.28
2023-03-22T04:43:07.101Z,95506.84
2023-03-22T04:46:25.506Z,95509.47
2023-03-22T04:49:14.301Z,95499.00
2023-03-22T04:56:36.844Z,95497.16
2023-03-22T04:59:36.981Z,95484.38
2023-03-22T05:02:18.337Z,95496.25
2023-03-22T05:05:31.378Z,95519.06
2023-03-22T05:08:52.267Z,95495.16
2023-03-22T05:11:37.635Z,95487.31
2023-03-22T05:15:27.242Z,95485.75
2023-03-22T05:21:21.781Z,95505.50
2023-03-22T05:24:43.177Z,95508.28
2023-03-22T05:28:01.018Z,95510.44
2023-03-22T05:31:27.316Z,95517.50
2023-03-22T05:34:41.715Z,95511.00
2023-03-22T05:37:46.501Z,95494.69
2023-03-22T05:40:33.891Z,95507.16
2023-03-22T05:43:25.300Z,95506.53
2023-03-22T05:46:24.323Z,95502.78
2023-03-22T05:49:34.832Z,95526.66
2023-03-22T05:52:21.457Z,95498.00
2023-03-22T05:55:25.972Z,95514.34
2023-03-22T05:57:59.371Z,95526.66
2023-03-22T06:00:32.355Z,95531.50
2023-03-22T06:03:19.146Z,95530.75
2023-03-22T06:05:55.306Z,95532.50
2023-03-22T06:08:35.370Z,95535.91
2023-03-22T06:11:03.834Z,95521.66
2023-03-22T06:13:32.394Z,95528.41
2023-03-22T06:16:05.208Z,95524.09
2023-03-22T06:18:33.783Z,95533.91
2023-03-22T06:21:09.701Z,95531.25
2023-03-22T06:23:39.074Z,95532.84
2023-03-22T06:26:09.814Z,95533.53
2023-03-22T06:28:38.602Z,95536.94
2023-03-22T06:31:09.242Z,95537.88
2023-03-22T06:34:09.707Z,95526.38
2023-03-22T06:36:42.629Z,95532.06
2023-03-22T06:39:33.810Z,95535.22
2023-03-22T06:42:02.124Z,95538.19
2023-03-22T06:44:30.525Z,95526.66
2023-03-22T06:47:28.055Z,95530.72
2023-03-22T06:50:13.186Z,95518.47
2023-03-22T06:53:01.030Z,95518.06
2023-03-22T06:55:33.476Z,95523.84
2023-03-22T06:58:06.970Z,95521.72
2023-03-22T07:00:35.475Z,95518.13
2023-03-22T07:03:03.715Z,95517.88
2023-03-22T07:05:40.379Z,95504.72
2023-03-22T07:08:08.630Z,95509.38
2023-03-22T07:10:42.768Z,95499.75
2023-03-22T07:13:10.818Z,95501.28
2023-03-22T07:15:39.686Z,95506.72
2023-03-22T07:18:18.700Z,95510.31
2023-03-22T07:20:46.948Z,95493.44
2023-03-22T07:23:15.807Z,95501.00
2023-03-22T07:25:50.195Z,95501.00
2023-03-22T07:28:26.963Z,95493.44
2023-03-22T07:31:05.621Z,95492.94
2023-03-22T07:33:52.532Z,95494.13
2023-03-22T07:36:24.113Z,95493.41
2023-03-22T07:38:53.072Z,95474.41
2023-03-22T07:41:31.016Z,95482.13
2023-03-22T07:44:18.525Z,95481.38
2023-03-22T07:47:06.598Z,95470.41
2023-03-22T07:49:44.952Z,95473.63
2023-03-22T07:52:22.716Z,95479.84
2023-03-22T07:54:58.755Z,95485.44
2023-03-22T07:57:32.144Z,95484.53
2023-03-22T08:00:26.852Z,95469.06
2023-03-22T08:03:17.338Z,95466.38
2023-03-22T08:06:09.940Z,95470.00
2023-03-22T08:08:47.278Z,95468.22
2023-03-22T08:11:22.807Z,95476.28
2023-03-22T08:13:59.252Z,95459.34
2023-03-22T08:16:37.743Z,95446.94
2023-03-22T08:19:07.089Z,95435.47
2023-03-22T08:22:09.169Z,95431.97
2023-03-22T08:25:08.715Z,95457.09
2023-03-22T08:27:40.706Z,95445.84
2023-03-22T08:30:20.960Z,95438.50
2023-03-22T08:32:57.555Z,95452.66
2023-03-22T08:35:30.052Z,95447.69
2023-03-22T08:37:59.976Z,95443.78
2023-03-22T08:40:41.373Z,95445.50
2023-03-22T08:43:09.505Z,95443.59
2023-03-22T08:45:42.690Z,95430.50
2023-03-22T08:48:16.785Z,95439.34
2023-03-22T08:51:34.024Z,95423.41
2023-03-22T08:54:59.567Z,95432.41
2023-03-22T08:58:14.473Z,95406.09
2023-03-22T09:01:24.517Z,95404.31
2023-03-22T09:04:00.781Z,95418.66
2023-03-22T09:06:31.471Z,95411.53
2023-03-22T09:09:00.457Z,95405.88
2023-03-22T09:11:29.369Z,95404.25
2023-03-22T09:13:58.389Z,95413.97
2023-03-22T09:16:26.381Z,95405.47
2023-03-22T09:18:56.555Z,95404.91
2023-03-22T09:21:24.588Z,95395.38
2023-03-22T09:24:11.185Z,95390.31
2023-03-22T09:26:47.143Z,95388.09
2023-03-22T09:29:20.007Z,95385.06
2023-03-22T09:31:53.064Z,95381.78
2023-03-22T09:34:25.217Z,95383.13
2023-03-22T09:36:53.443Z,95378.25
2023-03-22T09:39:26.186Z,95379.88
2023-03-22T09:42:02.092Z,95379.38
2023-03-22T09:44:51.427Z,95370.25
2023-03-22T09:47:44.423Z,95376.94
2023-03-22T09:50:21.216Z,95364.66
2023-03-22T09:52:50.002Z,95366.22
2023-03-22T09:55:44.286Z,95361.72
2023-03-22T09:58:22.130Z,95352.09
2023-03-22T10:01:19.617Z,95359.78
2023-03-22T10:04:00.564Z,95349.38
2023-03-22T10:06:31.369Z,95351.19
2023-03-22T10:09:11.930Z,95354.50
2023-03-22T10:11:55.081Z,95333.34
2023-03-22T10:14:42.884Z,95341.25
2023-03-22T10:17:25.779Z,95333.41
2023-03-22T10:20:10.363Z,95326.00
2023-03-22T10:22:42.362Z,95320.63
2023-03-22T10:25:17.791Z,95316.06
2023-03-22T10:27:50.085Z,95323.19
2023-03-22T10:30:24.974Z,95317.84
2023-03-22T10:33:20.741Z,95318.88
2023-03-22T10:35:49.896Z,95309.19
2023-03-22T10:38:29.506Z,95311.47
2023-03-22T10:40:59.923Z,95314.53
2023-03-22T10:43:35.232Z,95291.59
2023-03-22T10:46:15.452Z,95301.03
2023-03-22T10:48:46.445Z,95311.00
2023-03-22T10:51:33.424Z,95311.25
2023-03-22T10:54:03.648Z,95298.22
2023-03-22T10:56:32.277Z,95289.28
2023-03-22T10:59:00.767Z,95303.78
2023-03-22T11:01:37.128Z,95303.53
2023-03-22T11:04:10.822Z,95287.97
2023-03-22T11:06:54.592Z,95294.59
2023-03-22T11:09:25.017Z,95291.50
2023-03-22T11:11:58.996Z,95296.88
2023-03-22T11:14:48.008Z,95291.72
2023-03-22T11:17:23.005Z,95282.25
2023-03-22T11:19:59.077Z,95289.16
2023-03-22T11:22:46.336Z,95288.97
2023-03-22T11:25:20.849Z,95282.34
2023-03-22T11:27:56.452Z,95275.75
2023-03-22T11:30:26.760Z,95288.47
2023-03-22T11:33:15.120Z,95278.00
2023-03-22T11:35:47.593Z,95282.34
2023-03-22T11:38:25.933Z,95289.44
2023-03-22T11:41:01.809Z,95284.63
2023-03-22T11:43:44.419Z,95279.81
2023-03-22T11:46:13.508Z,95285.19
2023-03-22T11:48:42.723Z,95281.38
2023-03-22T11:51:14.465Z,95287.50
2023-03-22T11:53:47.386Z,95286.44
2023-03-22T11:56:26.369Z,95284.16
2023-03-22T11:58:59.783Z,95295.63
2023-03-22T12:01:46.203Z,95296.38
2023-03-22T12:04:20.542Z,95286.41
2023-03-22T12:06:54.167Z,95277.72
2023-03-22T12:09:43.654Z,95290.19
2023-03-22T12:12:30.843Z,95283.81
2023-03-22T12:15:08.058Z,95282.53
2023-03-22T12:17:42.898Z,95280.00
2023-03-22T12:20:19.945Z,95275.16
2023-03-22T12:22:53.634Z,95278.25
2023-03-22T12:25:27.326Z,95274.97
2023-03-22T12:27:59.911Z,95278.78
2023-03-22T12:30:31.997Z,95279.28
2023-03-22T12:33:26.244Z,95281.06
2023-03-22T12:36:01.007Z,95282.13
2023-03-22T12:38:43.378Z,95281.88
2023-03-22T12:41:15.837Z,95282.66
2023-03-22T12:44:10.000Z,95277.81
2023-03-22T12:46:53.010Z,95278.06
2023-03-22T12:49:32.806Z,95279.59
2023-03-22T12:52:19.703Z,95277.31
2023-03-22T12:54:50.706Z,95280.63
2023-03-22T12:57:19.597Z,95285.75
2023-03-22T12:59:52.494Z,95284.97
2023-03-22T13:02:31.445Z,95282.19
2023-03-22T13:05:03.236Z,95283.97
2023-03-22T13:07:48.025Z,95280.41
2023-03-22T13:10:32.059Z,95276.31
2023-03-22T13:13:08.965Z,95277.06
2023-03-22T13:15:42.714Z,95278.84
2023-03-22T13:18:36.556Z,95288.03
2023-03-22T13:21:24.567Z,95282.44
2023-03-22T13:24:15.534Z,95284.72
2023-03-22T13:26:51.855Z,95283.47
2023-03-22T13:29:26.089Z,95284.22
2023-03-22T13:32:07.343Z,95275.78
2023-03-22T13:34:38.603Z,95298.25
2023-03-22T13:37:46.268Z,95299.53
2023-03-22T13:40:37.003Z,95300.81
2023-03-22T13:43:29.072Z,95303.84
2023-03-22T13:46:18.088Z,95299.50
2023-03-22T13:48:52.884Z,95297.47
2023-03-22T13:51:25.651Z,95312.00
2023-03-22T13:54:24.582Z,95307.91
2023-03-22T13:57:01.086Z,95307.41
2023-03-22T13:59:31.320Z,95323.47
2023-03-22T14:02:08.638Z,95310.97
2023-03-22T14:04:45.163Z,95320.41
2023-03-22T14:07:31.802Z,95328.56
2023-03-22T14:10:04.056Z,95328.03
2023-03-22T14:13:04.418Z,95339.50
2023-03-22T14:15:41.865Z,95336.69
2023-03-22T14:18:27.410Z,95342.31
2023-03-22T14:21:09.636Z,95350.69
